Orangefield, Texas
Current Conditions -  °F | °C
As of 2:53 AM on Friday 31 Oct 2014 (Local Time) from KBPT Reporting Station
Clear Clear  
Wind Chill: 56°   Ceiling: Unl
Heat Index: 56°   Visibility: 10mi
Dew Point: 52°   Wind: 5mph
Humidity: 87%   Direction: 360°N
Pressure: 30.08"   Gusts: NA
Location:  30.07°N, 93.86°W
Report Text: KBPT 310753Z AUTO 36004KT 10SM CLR 13/11 A3008 RMK AO2 SLP186 T01330111
Loading
Personal Weather Stations






























Interactive Weather Map
Tropical Storm Tracking
New forecast layout! Learn more

10-Day Weather Forecast

Advertisements
Track Severe Weather on mobile